Orlando, Florida
Traffic Map
Current Weather Conditions
Orlando, Florida
Clear
Clear
83°
Feels Like: 89°
Wind Chill: 83° Ceiling: Unl
Heat Index: 89° Visibility: 10mi
Dew Point: 73° Wind: 7mph
Humidity: 72% Direction: 190° (S)
Pressure: 30.11in Gusts: 0mph
Raw Report DataKORL 210353Z AUTO 19006KT 10SM CLR 28/23 A3011 RMK AO2 SLP198 T02830228
Traffic Incident Summary
Active as of:
Severity:
Category:
InformationThere was an issue retrieving the traffic information for this location. Please try a different location or try again shortly.
Advertisements
Track Severe Weather on mobile